Bean Station, TN (37708)

1:14 AM EST on November 29, 2014 (GMT -0500)
Bean Station Cherokee Lake | Change Station
CLOSE
Current Station
Personal Weather Station
Location: Bean Station, TN
Elevation: 1125 ft
Nearby Weather Stations

Elev 1125 ft 36.28 °N, 83.38 °W | Updated 2 seconds ago

Clear
Clear
29.3 °F
Feels Like 29 °F
N
2.2
Wind Variable Wind from NW
Gusts 3.1 mph

Today
High -- | Low -- °F
--% Chance of Precip.
Yesterday
High -- | Low -- °F
Precip. -- in
7:24 AM 5:18 PM
Waxing Crescent, 48% visible
Pressure 30.22 in
Visibility 10.0 miles
Clouds Clear
Windchill 29 °F
Dew Point 21 °F
Humidity 71%
Rainfall 0.00 in
Snow Depth Not available.
UV 0 out of 12
Pollen .10 out of 12
Air Quality Not available.
Flu Activity Not available.
METAR K0VG 290555Z AUTO 00000KT 10SM CLR M04/M05 A3022 RMK AO2

More Conditions Fewer Conditions

Pressure 30.22 in
Visibility 10.0 miles
Clouds Clear
Windchill 29 °F
Dew Point 21 °F
Humidity 71%
Rainfall 0.00 in
Snow Depth Not available.
UV 0 out of 12
Pollen .10 out of 12
Air Quality Not available.
Flu Activity Not available.
METAR K0VG 290555Z AUTO 00000KT 10SM CLR M04/M05 A3022 RMK AO2

More Conditions Fewer Conditions

10-Day Weather Forecast

Almanac

Astronomy

Nov. 29, 2014 Rise Set
Actual Time
Civil Twilight
Nautical Twilight
Astronomical Twilight
Moon
Length of Visible Light
Length of Day
Tomorrow will be .
, % of the Moon is Illuminated

Today's Extremes

State Highs State Lows

Community

WunderPhotos

Upload Photos

1,774,426 photos uploaded!

WunderBlogs® & News

Nearby

Air Quality

  Air Quality AQ Index Pollutant
Not available.

Snow Depth

Station Depth Elevation

Earthquake Activity

City Distance Mag. Time & Date
Minimum magnitude displayed is 2.5.

Coastal Water Temperatures

Place Temperature

Nearby Weather Stations